createdAt,value
2018-06-01T00:00:52.370Z,44.41
2018-06-01T00:03:21.367Z,44.48
2018-06-01T00:05:50.353Z,44.41
2018-06-01T00:08:19.355Z,44.61
2018-06-01T00:10:50.603Z,44.72
2018-06-01T00:13:19.595Z,44.76
2018-06-01T00:15:48.695Z,44.76
2018-06-01T00:18:18.465Z,44.86
2018-06-01T00:20:47.629Z,44.86
2018-06-01T00:23:16.702Z,44.81
2018-06-01T00:25:45.784Z,44.71
2018-06-01T00:28:14.794Z,44.64
2018-06-01T00:30:44.401Z,44.45
2018-06-01T00:35:48.952Z,44.30
2018-06-01T00:38:18.046Z,44.12
2018-06-01T00:40:47.953Z,44.08
2018-06-01T00:43:16.820Z,44.06
2018-06-01T00:45:45.743Z,43.92
2018-06-01T00:48:21.536Z,43.96
2018-06-01T00:50:50.940Z,43.90
2018-06-01T00:53:19.888Z,43.71
2018-06-01T00:55:50.832Z,43.75
2018-06-01T00:58:19.935Z,43.53
2018-06-01T01:00:49.126Z,43.39
2018-06-01T01:03:19.839Z,43.21
2018-06-01T01:05:49.609Z,43.20
2018-06-01T01:08:19.193Z,43.11
2018-06-01T01:10:49.354Z,42.95
2018-06-01T01:13:19.122Z,42.89
2018-06-01T01:15:48.523Z,42.89
2018-06-01T01:18:17.615Z,43.38
2018-06-01T01:20:46.611Z,43.79
2018-06-01T01:23:15.709Z,44.13
2018-06-01T01:25:45.618Z,44.23
2018-06-01T01:28:14.660Z,44.52
2018-06-01T01:30:43.611Z,45.07
2018-06-01T01:33:13.625Z,45.33
2018-06-01T01:35:42.518Z,45.61
2018-06-01T01:38:11.406Z,45.76
2018-06-01T01:40:40.505Z,46.15
2018-06-01T01:43:09.499Z,46.22
2018-06-01T01:45:38.528Z,46.42
2018-06-01T01:48:07.710Z,46.69
2018-06-01T01:50:36.688Z,46.76
2018-06-01T01:53:05.528Z,46.90
2018-06-01T01:55:35.387Z,47.04
2018-06-01T01:58:04.374Z,47.45
2018-06-01T02:00:33.386Z,47.46
2018-06-01T02:03:02.461Z,47.53
2018-06-01T02:05:32.573Z,47.66
2018-06-01T02:08:01.436Z,47.74
2018-06-01T02:10:33.640Z,47.80
2018-06-01T02:13:02.651Z,47.79
2018-06-01T02:15:31.649Z,47.89
2018-06-01T02:18:01.518Z,47.71
2018-06-01T02:20:30.458Z,47.82
2018-06-01T02:22:59.735Z,47.82
2018-06-01T02:25:28.753Z,47.97
2018-06-01T02:27:57.744Z,47.97
2018-06-01T02:30:26.636Z,47.91
2018-06-01T02:32:56.450Z,47.93
2018-06-01T02:35:25.426Z,47.91
2018-06-01T02:37:54.336Z,47.97
2018-06-01T02:40:24.974Z,48.14
2018-06-01T02:42:55.125Z,48.28
2018-06-01T02:45:24.182Z,48.16
2018-06-01T02:47:53.190Z,48.13
2018-06-01T02:50:22.140Z,48.05
2018-06-01T02:52:51.274Z,47.81
2018-06-01T02:55:22.678Z,47.79
2018-06-01T02:57:51.715Z,47.70
2018-06-01T03:00:20.714Z,47.77
2018-06-01T03:02:49.921Z,47.40
2018-06-01T03:05:18.913Z,47.08
2018-06-01T03:07:48.210Z,46.64
2018-06-01T03:10:17.201Z,45.86
2018-06-01T03:12:46.196Z,45.05
2018-06-01T03:15:15.092Z,43.91
2018-06-01T03:17:50.542Z,43.50
2018-06-01T03:20:19.688Z,42.77
2018-06-01T03:22:48.621Z,42.16
2018-06-01T03:27:51.938Z,40.88
2018-06-01T03:30:20.830Z,39.90
2018-06-01T03:32:51.979Z,39.32
2018-06-01T03:35:21.070Z,38.55
2018-06-01T03:37:49.964Z,38.47
2018-06-01T03:40:20.699Z,39.74
2018-06-01T03:42:49.690Z,40.21
2018-06-01T03:45:18.651Z,39.94
2018-06-01T03:50:22.241Z,40.67
2018-06-01T03:52:51.093Z,40.47
2018-06-01T03:55:20.189Z,40.94
2018-06-01T03:57:49.183Z,42.28
2018-06-01T04:00:18.182Z,42.64
2018-06-01T04:02:47.209Z,42.88
2018-06-01T04:05:16.379Z,43.55
2018-06-01T04:07:45.368Z,44.15
2018-06-01T04:12:48.269Z,41.82
2018-06-01T04:15:17.299Z,42.00
2018-06-01T04:17:47.187Z,41.38
2018-06-01T04:20:16.287Z,40.43
2018-06-01T04:22:45.097Z,40.21
2018-06-01T04:25:14.098Z,39.60
2018-06-01T04:27:43.396Z,39.81
2018-06-01T04:30:12.585Z,40.80
2018-06-01T04:32:42.478Z,40.63
2018-06-01T04:35:13.396Z,39.35
2018-06-01T04:37:42.413Z,38.72
2018-06-01T04:40:12.805Z,38.31
2018-06-01T04:42:44.806Z,39.83
2018-06-01T04:45:13.795Z,40.24
2018-06-01T04:47:42.689Z,41.26
2018-06-01T04:50:12.605Z,42.02
2018-06-01T04:52:42.011Z,41.75
2018-06-01T04:55:11.107Z,41.53
2018-06-01T04:57:41.695Z,40.84
2018-06-01T05:00:10.633Z,41.51
2018-06-01T05:02:39.737Z,40.07
2018-06-01T05:07:42.943Z,40.58
2018-06-01T05:10:11.932Z,41.73
2018-06-01T05:15:15.349Z,43.03
2018-06-01T05:17:45.262Z,43.91
2018-06-01T05:20:14.318Z,43.68
2018-06-01T05:22:43.245Z,44.04
2018-06-01T05:25:12.285Z,43.08
2018-06-01T05:27:43.218Z,43.27
2018-06-01T05:30:12.186Z,42.76
2018-06-01T05:32:41.128Z,43.45
2018-06-01T05:35:10.169Z,43.24
2018-06-01T05:37:40.015Z,43.00
2018-06-01T05:40:08.945Z,42.36
2018-06-01T05:42:37.900Z,42.44
2018-06-01T05:45:07.747Z,41.40
2018-06-01T05:47:37.046Z,41.21
2018-06-01T05:50:06.175Z,41.32
2018-06-01T05:52:35.825Z,41.51
2018-06-01T05:55:04.889Z,41.09
2018-06-01T06:00:07.905Z,38.64
2018-06-01T06:02:37.204Z,37.05
2018-06-01T06:05:07.226Z,36.49
2018-06-01T06:07:36.412Z,35.29
2018-06-01T06:10:05.514Z,34.00
2018-06-01T06:12:34.500Z,33.03
2018-06-01T06:15:03.495Z,31.46
2018-06-01T06:17:32.592Z,30.26
2018-06-01T06:20:01.630Z,29.43
2018-06-01T06:22:30.886Z,30.33
2018-06-01T06:24:59.811Z,30.78
2018-06-01T06:27:29.586Z,32.58
2018-06-01T06:29:59.869Z,35.08
2018-06-01T06:32:28.912Z,35.87
2018-06-01T06:34:57.814Z,36.43
2018-06-01T06:37:26.821Z,37.08
2018-06-01T06:39:55.906Z,36.68
2018-06-01T06:42:25.138Z,37.67
2018-06-01T06:44:54.194Z,38.07
2018-06-01T06:47:23.186Z,38.18
2018-06-01T06:49:52.898Z,37.17
2018-06-01T06:52:21.834Z,35.38
2018-06-01T06:54:50.785Z,32.60
2018-06-01T06:59:53.850Z,29.78
2018-06-01T07:02:22.789Z,30.10
2018-06-01T07:04:52.621Z,29.32
2018-06-01T07:07:21.593Z,30.69
2018-06-01T07:09:50.701Z,30.82
2018-06-01T07:14:54.044Z,30.73
2018-06-01T07:17:22.994Z,29.43
2018-06-01T07:19:52.095Z,30.08
2018-06-01T07:22:21.927Z,30.60
2018-06-01T07:24:51.040Z,30.16
2018-06-01T07:27:21.737Z,29.69
2018-06-01T07:29:51.560Z,29.77
2018-06-01T07:32:20.440Z,30.35
2018-06-01T07:34:50.260Z,32.50
2018-06-01T07:37:19.179Z,33.58
2018-06-01T07:39:48.032Z,33.46
2018-06-01T07:42:16.932Z,33.90
2018-06-01T07:44:45.828Z,34.22
2018-06-01T07:47:14.758Z,33.99
2018-06-01T07:49:43.915Z,34.91
2018-06-01T07:52:12.845Z,34.07
2018-06-01T07:54:42.413Z,33.76
2018-06-01T07:57:11.337Z,34.46
2018-06-01T07:59:40.332Z,33.10
2018-06-01T08:02:09.401Z,33.09
2018-06-01T08:04:38.765Z,33.72
2018-06-01T08:07:07.796Z,33.65
2018-06-01T08:09:36.886Z,35.97
2018-06-01T08:12:06.899Z,35.21
2018-06-01T08:14:35.889Z,35.12
2018-06-01T08:17:04.997Z,36.99
2018-06-01T08:19:34.820Z,37.21
2018-06-01T08:22:03.870Z,38.99
2018-06-01T08:24:32.940Z,38.25
2018-06-01T08:27:02.377Z,38.43
2018-06-01T08:29:31.403Z,37.57
2018-06-01T08:32:01.319Z,37.42
2018-06-01T08:34:30.396Z,36.77
2018-06-01T08:36:59.728Z,36.83
2018-06-01T08:39:28.752Z,37.06
2018-06-01T08:41:57.789Z,36.58
2018-06-01T08:44:26.701Z,36.50
2018-06-01T08:46:55.594Z,36.80
2018-06-01T08:49:26.603Z,38.57
2018-06-01T08:51:55.531Z,39.08
2018-06-01T08:54:24.529Z,38.13
2018-06-01T08:56:54.337Z,38.16
2018-06-01T08:59:23.432Z,38.02
2018-06-01T09:01:52.328Z,38.03
2018-06-01T09:04:23.013Z,37.49
2018-06-01T09:06:51.917Z,37.45
2018-06-01T09:09:20.844Z,37.88
2018-06-01T09:11:51.487Z,37.80
2018-06-01T09:14:20.568Z,37.67
2018-06-01T09:16:49.580Z,38.21
2018-06-01T09:21:54.110Z,38.85
2018-06-01T09:24:23.331Z,39.73
2018-06-01T09:26:52.462Z,39.01
2018-06-01T09:29:21.545Z,39.79
2018-06-01T09:31:50.503Z,39.40
2018-06-01T09:36:53.815Z,39.89
2018-06-01T09:39:22.864Z,39.29
2018-06-01T09:41:52.045Z,38.91
2018-06-01T09:44:21.088Z,39.41
2018-06-01T09:46:50.157Z,40.89
2018-06-01T09:49:19.168Z,42.45
2018-06-01T09:51:48.491Z,43.87
2018-06-01T09:54:17.428Z,41.15
2018-06-01T09:56:46.690Z,42.96
2018-06-01T09:59:15.832Z,42.14
2018-06-01T10:01:44.884Z,40.98
2018-06-01T10:06:47.896Z,42.29
2018-06-01T10:09:18.263Z,40.88
2018-06-01T10:11:47.514Z,43.11
2018-06-01T10:14:16.851Z,43.11
2018-06-01T10:16:45.942Z,44.66
2018-06-01T10:19:15.047Z,45.10
2018-06-01T10:21:44.040Z,44.41
2018-06-01T10:24:13.036Z,45.47
2018-06-01T10:26:44.946Z,46.54
2018-06-01T10:29:14.296Z,46.17
2018-06-01T10:31:43.503Z,46.95
2018-06-01T10:36:47.287Z,46.61
2018-06-01T10:39:16.384Z,47.02
2018-06-01T10:41:47.773Z,46.66
2018-06-01T10:44:17.751Z,46.97
2018-06-01T10:46:46.752Z,46.98
2018-06-01T10:49:15.732Z,46.23
2018-06-01T10:51:45.759Z,47.18
2018-06-01T10:54:15.190Z,47.15
2018-06-01T10:56:44.300Z,47.27
2018-06-01T10:59:13.365Z,47.93
2018-06-01T11:01:42.540Z,48.89
2018-06-01T11:04:12.334Z,49.00
2018-06-01T11:06:42.460Z,50.02
2018-06-01T11:09:12.494Z,51.18
2018-06-01T11:11:44.156Z,52.55
2018-06-01T11:14:13.159Z,53.21
2018-06-01T11:16:42.865Z,54.45
2018-06-01T11:19:11.866Z,53.98
2018-06-01T11:21:40.834Z,53.82
2018-06-01T11:24:09.946Z,54.48
2018-06-01T11:26:39.144Z,54.16
2018-06-01T11:29:09.056Z,55.05
2018-06-01T11:31:37.953Z,54.80
2018-06-01T11:34:08.903Z,54.42
2018-06-01T11:36:38.096Z,57.84
2018-06-01T11:39:07.172Z,58.12
2018-06-01T11:41:36.697Z,59.49
2018-06-01T11:44:05.685Z,59.96
2018-06-01T11:46:34.788Z,61.42
2018-06-01T11:49:04.709Z,61.47
2018-06-01T11:51:33.640Z,58.13
2018-06-01T11:54:02.586Z,61.14
2018-06-01T11:56:37.113Z,59.00
2018-06-01T11:59:06.112Z,54.85
2018-06-01T12:01:35.108Z,54.13
2018-06-01T12:04:04.189Z,54.88
2018-06-01T12:06:33.241Z,54.09
2018-06-01T12:09:02.186Z,53.82
2018-06-01T12:11:33.944Z,54.08
2018-06-01T12:14:05.501Z,54.46
2018-06-01T12:16:34.469Z,54.69
2018-06-01T12:19:03.413Z,56.36
2018-06-01T12:21:32.233Z,57.81
2018-06-01T12:24:01.309Z,58.96
2018-06-01T12:26:30.205Z,60.87
2018-06-01T12:28:59.152Z,61.32
2018-06-01T12:34:02.370Z,61.95
2018-06-01T12:36:31.365Z,63.85
2018-06-01T12:39:00.463Z,64.99
2018-06-01T12:41:31.302Z,65.89
2018-06-01T12:44:00.195Z,65.50
2018-06-01T12:46:29.085Z,65.10
2018-06-01T12:48:58.994Z,66.57
2018-06-01T12:51:27.974Z,67.42
2018-06-01T12:53:57.146Z,67.79
2018-06-01T12:59:00.388Z,68.66
2018-06-01T13:01:29.499Z,67.97
2018-06-01T13:03:58.605Z,66.97
2018-06-01T13:06:27.748Z,66.37
2018-06-01T13:08:57.296Z,66.43
2018-06-01T13:11:26.399Z,67.50
2018-06-01T13:13:55.495Z,65.88
2018-06-01T13:16:24.594Z,65.66
2018-06-01T13:18:54.254Z,67.29
2018-06-01T13:21:23.129Z,68.28
2018-06-01T13:23:52.053Z,68.00
2018-06-01T13:28:54.876Z,66.48
2018-06-01T13:31:23.779Z,65.74
2018-06-01T13:33:52.880Z,64.12
2018-06-01T13:36:22.137Z,61.14
2018-06-01T13:38:51.173Z,60.70
2018-06-01T13:41:21.006Z,60.73
2018-06-01T13:43:50.037Z,59.89
2018-06-01T13:46:19.076Z,61.54
2018-06-01T13:48:48.992Z,62.07
2018-06-01T13:51:17.932Z,62.25
2018-06-01T13:53:46.901Z,61.48
2018-06-01T13:56:17.207Z,61.67
2018-06-01T13:58:46.449Z,61.50
2018-06-01T14:01:15.318Z,60.63
2018-06-01T14:03:45.141Z,62.23
2018-06-01T14:06:14.361Z,61.04
2018-06-01T14:08:43.300Z,62.07
2018-06-01T14:11:13.830Z,62.04
2018-06-01T14:13:42.823Z,62.18
2018-06-01T14:16:11.925Z,61.39
2018-06-01T14:18:41.117Z,60.18
2018-06-01T14:21:14.796Z,58.49
2018-06-01T14:23:44.302Z,56.46
2018-06-01T14:26:13.401Z,58.24
2018-06-01T14:28:42.400Z,59.81
2018-06-01T14:31:11.478Z,60.82
2018-06-01T14:33:40.489Z,62.50
2018-06-01T14:36:09.929Z,60.99
2018-06-01T14:38:42.023Z,60.82
2018-06-01T14:41:11.101Z,60.97
2018-06-01T14:43:40.066Z,59.19
2018-06-01T14:46:09.148Z,57.79
2018-06-01T14:48:38.299Z,57.90
2018-06-01T14:51:08.058Z,57.97
2018-06-01T14:53:37.055Z,58.67
2018-06-01T14:56:06.793Z,59.21
2018-06-01T14:58:35.949Z,59.61
2018-06-01T15:01:05.911Z,59.03
2018-06-01T15:03:35.010Z,58.82
2018-06-01T15:06:03.970Z,59.38
2018-06-01T15:08:33.833Z,58.80
2018-06-01T15:11:03.121Z,58.30
2018-06-01T15:13:32.105Z,58.69
2018-06-01T15:16:02.053Z,57.57
2018-06-01T15:18:30.996Z,58.42
2018-06-01T15:20:59.982Z,58.17
2018-06-01T15:26:03.889Z,58.44
2018-06-01T15:28:32.907Z,58.95
2018-06-01T15:31:02.241Z,59.71
2018-06-01T15:33:31.310Z,60.37
2018-06-01T15:36:01.219Z,59.75
2018-06-01T15:38:32.477Z,60.95
2018-06-01T15:41:01.774Z,60.21
2018-06-01T15:43:31.235Z,60.47
2018-06-01T15:46:00.229Z,59.77
2018-06-01T15:48:29.334Z,59.58
2018-06-01T15:50:58.546Z,60.11
2018-06-01T15:53:29.486Z,60.93
2018-06-01T15:55:58.396Z,60.51
2018-06-01T15:58:28.355Z,60.80
2018-06-01T16:00:57.674Z,61.12
2018-06-01T16:03:27.634Z,61.90
2018-06-01T16:05:56.846Z,62.09
2018-06-01T16:13:34.268Z,63.30
2018-06-01T16:16:03.354Z,63.99
2018-06-01T16:18:34.599Z,64.00
2018-06-01T16:21:03.681Z,64.37
2018-06-01T16:23:32.631Z,64.41
2018-06-01T16:26:01.581Z,64.55
2018-06-01T16:28:31.006Z,65.23
2018-06-01T16:31:00.223Z,65.59
2018-06-01T16:33:29.684Z,66.54
2018-06-01T16:35:58.847Z,67.56
2018-06-01T16:38:27.779Z,67.99
2018-06-01T16:40:56.776Z,68.01
2018-06-01T16:43:25.836Z,67.53
2018-06-01T16:45:54.989Z,68.17
2018-06-01T16:48:24.070Z,68.66
2018-06-01T16:50:53.369Z,69.49
2018-06-01T16:53:22.677Z,68.55
2018-06-01T16:55:52.764Z,68.07
2018-06-01T16:58:21.683Z,67.81
2018-06-01T17:00:50.882Z,67.92
2018-06-01T17:03:20.860Z,68.61
2018-06-01T17:05:49.949Z,68.95
2018-06-01T17:08:19.741Z,68.29
2018-06-01T17:10:49.934Z,68.21
2018-06-01T17:13:18.935Z,68.05
2018-06-01T17:15:48.176Z,67.95
2018-06-01T17:18:19.111Z,68.31
2018-06-01T17:20:48.571Z,68.82
2018-06-01T17:23:17.712Z,68.98
2018-06-01T17:25:47.175Z,68.97
2018-06-01T17:28:16.477Z,68.02
2018-06-01T17:30:45.803Z,67.94
2018-06-01T17:33:14.830Z,67.97
2018-06-01T17:35:44.726Z,68.23
2018-06-01T17:38:13.930Z,68.53
2018-06-01T17:40:43.384Z,68.54
2018-06-01T17:43:12.593Z,68.75
2018-06-01T17:45:42.212Z,68.86
2018-06-01T17:48:12.266Z,68.92
2018-06-01T17:50:41.435Z,68.49
2018-06-01T17:53:10.621Z,68.59
2018-06-01T17:55:39.840Z,68.47
2018-06-01T17:58:08.848Z,67.99
2018-06-01T18:00:37.817Z,67.86
2018-06-01T18:03:07.749Z,67.16
2018-06-01T18:05:36.924Z,67.05
2018-06-01T18:08:05.914Z,66.87
2018-06-01T18:10:35.335Z,66.25
2018-06-01T18:13:04.312Z,65.85
2018-06-01T18:15:33.926Z,64.94
2018-06-01T18:18:03.125Z,64.23
2018-06-01T18:20:32.258Z,62.88
2018-06-01T18:23:01.414Z,61.84
2018-06-01T18:25:32.289Z,60.66
2018-06-01T18:28:01.544Z,59.37
2018-06-01T18:30:30.808Z,58.32
2018-06-01T18:33:00.136Z,56.91
2018-06-01T18:35:30.434Z,56.17
2018-06-01T18:37:59.378Z,55.78
2018-06-01T18:40:28.575Z,54.93
2018-06-01T18:42:57.809Z,53.97
2018-06-01T18:45:26.776Z,54.09
2018-06-01T18:47:55.923Z,54.98
2018-06-01T18:50:25.001Z,56.31
2018-06-01T18:52:54.340Z,57.69
2018-06-01T18:55:23.445Z,58.55
2018-06-01T18:57:52.577Z,59.03
2018-06-01T19:00:21.770Z,58.69
2018-06-01T19:02:52.941Z,58.48
2018-06-01T19:05:21.896Z,57.70
2018-06-01T19:07:51.699Z,57.24
2018-06-01T19:10:21.007Z,57.68
2018-06-01T19:12:50.083Z,57.41
2018-06-01T19:15:19.104Z,57.31
2018-06-01T19:17:48.226Z,57.04
2018-06-01T19:20:17.291Z,57.25
2018-06-01T19:22:46.260Z,57.98
2018-06-01T19:25:15.281Z,58.92
2018-06-01T19:27:44.374Z,59.18
2018-06-01T19:30:13.477Z,59.57
2018-06-01T19:32:44.208Z,60.21
2018-06-01T19:35:13.408Z,60.55
2018-06-01T19:37:42.402Z,60.92
2018-06-01T19:40:12.298Z,60.96
2018-06-01T19:42:41.677Z,61.28
2018-06-01T19:45:10.857Z,61.87
2018-06-01T19:47:40.210Z,61.94
2018-06-01T19:50:09.258Z,62.70
2018-06-01T19:52:38.311Z,63.34
2018-06-01T19:55:07.860Z,63.42
2018-06-01T19:57:36.859Z,64.02
2018-06-01T20:00:06.465Z,64.10
2018-06-01T20:02:35.594Z,64.32
2018-06-01T20:05:04.858Z,64.24
2018-06-01T20:07:33.909Z,64.70
2018-06-01T20:10:04.022Z,64.94
2018-06-01T20:12:32.968Z,65.25
2018-06-01T20:15:02.058Z,65.55
2018-06-01T20:17:31.884Z,65.34
2018-06-01T20:20:00.980Z,65.44
2018-06-01T20:22:30.283Z,65.42
2018-06-01T20:24:59.440Z,65.87
2018-06-01T20:27:28.471Z,65.78
2018-06-01T20:29:57.672Z,65.57
2018-06-01T20:32:28.472Z,65.94
2018-06-01T20:34:57.508Z,66.32
2018-06-01T20:37:26.581Z,66.18
2018-06-01T20:39:55.741Z,66.01
2018-06-01T20:42:24.690Z,66.23
2018-06-01T20:44:53.749Z,66.30
2018-06-01T20:47:22.825Z,66.36
2018-06-01T20:49:51.981Z,66.30
2018-06-01T20:52:21.898Z,66.32
2018-06-01T20:54:51.282Z,66.17
2018-06-01T20:57:21.011Z,66.03
2018-06-01T20:59:50.226Z,66.32
2018-06-01T21:04:53.318Z,66.14
2018-06-01T21:07:22.530Z,66.21
2018-06-01T21:09:51.420Z,66.34
2018-06-01T21:12:21.690Z,66.37
2018-06-01T21:14:50.666Z,66.12
2018-06-01T21:17:19.592Z,66.03
2018-06-01T21:19:52.827Z,65.94
2018-06-01T21:22:21.923Z,65.44
2018-06-01T21:24:51.919Z,65.66
2018-06-01T21:27:21.139Z,65.86
2018-06-01T21:29:50.483Z,65.88
2018-06-01T21:32:19.539Z,65.96
2018-06-01T21:34:48.550Z,65.38
2018-06-01T21:37:17.739Z,65.55
2018-06-01T21:39:46.844Z,65.87
2018-06-01T21:42:15.977Z,65.96
2018-06-01T21:44:45.114Z,66.28
2018-06-01T21:47:14.046Z,66.42
2018-06-01T21:49:43.351Z,66.58
2018-06-01T21:52:12.665Z,66.72
2018-06-01T21:54:41.668Z,66.90
2018-06-01T21:57:10.820Z,67.10
2018-06-01T21:59:40.043Z,67.31
2018-06-01T22:02:09.138Z,67.57
2018-06-01T22:04:42.082Z,67.90
2018-06-01T22:07:11.390Z,67.74
2018-06-01T22:09:40.403Z,67.79
2018-06-01T22:12:10.423Z,67.85
2018-06-01T22:14:39.785Z,67.66
2018-06-01T22:17:12.161Z,67.91
2018-06-01T22:19:42.221Z,68.37
2018-06-01T22:22:11.293Z,68.95
2018-06-01T22:27:17.062Z,69.97
2018-06-01T22:29:46.055Z,69.90
2018-06-01T22:32:15.047Z,70.66
2018-06-01T22:34:47.528Z,70.77
2018-06-01T22:37:17.407Z,70.91
2018-06-01T22:39:46.338Z,70.83
2018-06-01T22:42:16.995Z,70.91
2018-06-01T22:44:45.962Z,71.07
2018-06-01T22:47:15.685Z,70.99
2018-06-01T22:49:48.042Z,71.21
2018-06-01T22:52:17.057Z,71.22
2018-06-01T22:54:45.965Z,71.23
2018-06-01T22:57:14.823Z,71.56
2018-06-01T22:59:43.921Z,71.27
2018-06-01T23:02:12.815Z,71.37
2018-06-01T23:04:41.946Z,71.48
2018-06-01T23:07:11.011Z,71.65
2018-06-01T23:09:39.998Z,71.79
2018-06-01T23:12:08.888Z,71.94
2018-06-01T23:14:38.569Z,72.10
2018-06-01T23:17:08.618Z,72.03
2018-06-01T23:19:37.443Z,71.99
2018-06-01T23:22:07.022Z,71.98
2018-06-01T23:24:36.140Z,71.96
2018-06-01T23:27:13.209Z,72.08
2018-06-01T23:29:42.065Z,72.26
2018-06-01T23:32:11.696Z,72.04
2018-06-01T23:34:40.766Z,72.05
2018-06-01T23:37:09.685Z,71.92
2018-06-01T23:39:38.778Z,72.11
2018-06-01T23:42:07.881Z,72.35
2018-06-01T23:44:37.628Z,72.40
2018-06-01T23:47:06.824Z,72.43
2018-06-01T23:49:36.574Z,72.52
2018-06-01T23:52:05.687Z,72.76
2018-06-01T23:54:34.693Z,72.76
2018-06-01T23:57:03.666Z,73.15
2018-06-01T23:59:33.400Z,73.41
